createdAt,value
2018-08-24T00:00:25.628Z,26.45
2018-08-24T00:01:35.439Z,26.34
2018-08-24T00:02:45.281Z,26.34
2018-08-24T00:03:55.107Z,26.38
2018-08-24T00:05:05.278Z,26.38
2018-08-24T00:06:15.082Z,26.32
2018-08-24T00:07:24.968Z,26.44
2018-08-24T00:08:35.020Z,26.34
2018-08-24T00:09:45.108Z,26.32
2018-08-24T00:10:55.188Z,26.24
2018-08-24T00:12:05.041Z,26.27
2018-08-24T00:13:15.128Z,26.23
2018-08-24T00:14:25.184Z,26.23
2018-08-24T00:15:35.261Z,26.27
2018-08-24T00:16:45.076Z,26.24
2018-08-24T00:17:55.152Z,26.15
2018-08-24T00:19:05.370Z,26.24
2018-08-24T00:20:15.442Z,26.24
2018-08-24T00:21:25.263Z,26.26
2018-08-24T00:22:35.345Z,26.24
2018-08-24T00:23:45.431Z,26.31
2018-08-24T00:24:55.513Z,26.35
2018-08-24T00:26:05.585Z,26.32
2018-08-24T00:27:15.657Z,26.26
2018-08-24T00:28:25.787Z,26.44
2018-08-24T00:29:35.875Z,26.41
2018-08-24T00:30:45.955Z,26.39
2018-08-24T00:31:56.335Z,26.38
2018-08-24T00:33:06.437Z,26.39
2018-08-24T00:34:16.520Z,26.35
2018-08-24T00:35:26.618Z,26.44
2018-08-24T00:36:36.683Z,26.37
2018-08-24T00:37:46.886Z,26.39
2018-08-24T00:38:56.725Z,26.32
2018-08-24T00:40:06.827Z,26.45
2018-08-24T00:41:16.384Z,26.35
2018-08-24T00:42:26.469Z,26.35
2018-08-24T00:43:36.622Z,26.38
2018-08-24T00:44:46.704Z,26.31
2018-08-24T00:45:56.779Z,26.45
2018-08-24T00:47:06.869Z,26.44
2018-08-24T00:48:16.952Z,26.44
2018-08-24T00:49:27.028Z,26.45
2018-08-24T00:50:36.839Z,26.47
2018-08-24T00:51:46.982Z,26.45
2018-08-24T00:52:57.053Z,26.44
2018-08-24T00:54:07.122Z,26.45
2018-08-24T00:55:17.192Z,26.44
2018-08-24T00:56:26.747Z,26.59
2018-08-24T00:57:36.872Z,26.61
2018-08-24T00:58:46.693Z,26.68
2018-08-24T00:59:56.766Z,26.64
2018-08-24T01:01:06.848Z,26.57
2018-08-24T01:02:16.935Z,26.61
2018-08-24T01:03:26.751Z,26.68
2018-08-24T01:04:36.818Z,26.71
2018-08-24T01:05:46.891Z,26.64
2018-08-24T01:06:56.962Z,26.67
2018-08-24T01:08:07.042Z,26.72
2018-08-24T01:09:17.166Z,26.63
2018-08-24T01:10:27.232Z,26.68
2018-08-24T01:11:36.792Z,26.71
2018-08-24T01:12:46.600Z,26.75
2018-08-24T01:13:56.672Z,26.75
2018-08-24T01:15:06.811Z,26.74
2018-08-24T01:16:16.912Z,26.64
2018-08-24T01:17:26.741Z,26.71
2018-08-24T01:18:36.826Z,26.64
2018-08-24T01:19:46.646Z,26.72
2018-08-24T01:20:56.736Z,26.61
2018-08-24T01:22:06.540Z,26.63
2018-08-24T01:23:16.633Z,26.57
2018-08-24T01:24:26.698Z,26.61
2018-08-24T01:25:36.779Z,26.64
2018-08-24T01:26:46.855Z,26.63
2018-08-24T01:27:56.913Z,26.64
2018-08-24T01:29:06.979Z,26.67
2018-08-24T01:30:17.083Z,26.6
2018-08-24T01:31:26.896Z,26.59
2018-08-24T01:32:36.981Z,26.53
2018-08-24T01:33:46.800Z,26.53
2018-08-24T01:34:56.888Z,26.45
2018-08-24T01:36:06.955Z,26.44
2018-08-24T01:37:17.026Z,26.44
2018-08-24T01:38:27.119Z,26.44
2018-08-24T01:39:37.199Z,26.45
2018-08-24T01:40:47.008Z,26.42
2018-08-24T01:41:57.085Z,26.45
2018-08-24T01:43:07.176Z,26.44
2018-08-24T01:44:17.247Z,26.41
2018-08-24T01:45:27.062Z,26.41
2018-08-24T01:46:36.614Z,26.38
2018-08-24T01:47:46.688Z,26.39
2018-08-24T01:48:56.794Z,26.42
2018-08-24T01:50:06.876Z,26.32
2018-08-24T01:51:16.953Z,26.31
2018-08-24T01:52:27.045Z,26.31
2018-08-24T01:53:37.117Z,26.27
2018-08-24T01:54:47.186Z,26.32
2018-08-24T01:55:57.037Z,26.34
2018-08-24T01:57:07.097Z,26.26
2018-08-24T01:58:17.177Z,26.24
2018-08-24T01:59:27.250Z,26.23
2018-08-24T02:00:37.348Z,26.15
2018-08-24T02:01:47.482Z,26.19
2018-08-24T02:02:57.614Z,26.17
2018-08-24T02:04:07.690Z,26.15
2018-08-24T02:05:17.757Z,26.07
2018-08-24T02:06:27.830Z,26.06
2018-08-24T02:07:37.650Z,26.01
2018-08-24T02:08:47.723Z,26
2018-08-24T02:09:57.815Z,25.96
2018-08-24T02:11:08.000Z,26.01
2018-08-24T02:12:18.073Z,25.96
2018-08-24T02:13:27.946Z,25.96
2018-08-24T02:14:38.303Z,25.97
2018-08-24T02:15:48.369Z,25.96
2018-08-24T02:16:58.435Z,25.91
2018-08-24T02:18:08.262Z,25.86
2018-08-24T02:19:18.657Z,25.88
2018-08-24T02:20:28.744Z,25.91
2018-08-24T02:21:38.561Z,25.93
2018-08-24T02:22:48.391Z,25.88
2018-08-24T02:23:58.474Z,25.85
2018-08-24T02:25:08.571Z,25.74
2018-08-24T02:26:18.649Z,25.7
2018-08-24T02:27:28.719Z,25.76
2018-08-24T02:28:38.525Z,25.74
2018-08-24T02:29:48.614Z,25.66
2018-08-24T02:30:58.448Z,25.75
2018-08-24T02:32:08.563Z,25.71
2018-08-24T02:33:18.647Z,25.64
2018-08-24T02:34:28.733Z,25.56
2018-08-24T02:35:38.812Z,25.67
2018-08-24T02:36:48.930Z,25.62
2018-08-24T02:37:59.032Z,25.56
2018-08-24T02:39:09.126Z,25.56
2018-08-24T02:40:19.204Z,25.49
2018-08-24T02:41:29.035Z,25.47
2018-08-24T02:42:39.153Z,25.42
2018-08-24T02:43:48.964Z,25.44
2018-08-24T02:44:59.225Z,25.39
2018-08-24T02:46:09.454Z,25.32
2018-08-24T02:47:19.536Z,25.26
2018-08-24T02:48:29.093Z,25.32
2018-08-24T02:49:39.171Z,25.19
2018-08-24T02:50:49.259Z,25.15
2018-08-24T02:51:59.330Z,25.14
2018-08-24T02:53:09.398Z,25.08
2018-08-24T02:54:19.219Z,24.94
2018-08-24T02:55:29.291Z,24.97
2018-08-24T02:56:39.109Z,24.93
2018-08-24T02:57:49.202Z,24.87
2018-08-24T02:58:59.032Z,24.86
2018-08-24T03:00:08.908Z,24.78
2018-08-24T03:01:19.021Z,24.87
2018-08-24T03:02:29.110Z,24.87
2018-08-24T03:35:05.260Z,22.26
2018-08-24T03:36:15.321Z,22.12
2018-08-24T03:37:25.125Z,22.08
2018-08-24T03:38:35.188Z,22.14
2018-08-24T03:39:44.997Z,22.08
2018-08-24T03:40:55.123Z,22.14
2018-08-24T03:42:05.185Z,22.18
2018-08-24T03:43:15.268Z,22.23
2018-08-24T03:44:25.330Z,22.33
2018-08-24T03:45:35.142Z,22.46
2018-08-24T03:46:44.679Z,22.49
2018-08-24T03:47:54.760Z,22.45
2018-08-24T03:49:04.566Z,22.63
2018-08-24T03:50:14.642Z,22.71
2018-08-24T03:51:24.449Z,22.78
2018-08-24T03:52:34.263Z,22.91
2018-08-24T03:53:44.098Z,22.89
2018-08-24T03:54:54.173Z,22.94
2018-08-24T03:56:04.243Z,22.91
2018-08-24T03:57:14.325Z,23.09
2018-08-24T03:58:24.460Z,23.12
2018-08-24T03:59:34.547Z,23.22
2018-08-24T04:00:44.643Z,23.28
2018-08-24T04:01:54.733Z,23.26
2018-08-24T04:03:04.816Z,23.4
2018-08-24T04:04:14.098Z,23.37
2018-08-24T04:05:24.176Z,23.47
2018-08-24T04:06:34.296Z,23.45
2018-08-24T04:07:44.121Z,23.53
2018-08-24T04:08:54.199Z,23.5
2018-08-24T04:10:04.283Z,23.62
2018-08-24T04:11:14.340Z,23.6
2018-08-24T04:12:24.426Z,23.56
2018-08-24T04:13:34.530Z,23.6
2018-08-24T04:14:44.596Z,23.64
2018-08-24T04:15:54.758Z,23.63
2018-08-24T04:17:04.828Z,23.67
2018-08-24T04:18:14.886Z,23.75
2018-08-24T04:19:25.320Z,23.72
2018-08-24T04:20:35.676Z,23.79
2018-08-24T04:21:45.744Z,23.81
2018-08-24T04:22:55.597Z,23.89
2018-08-24T04:24:05.436Z,23.89
2018-08-24T04:25:15.512Z,23.84
2018-08-24T04:26:25.596Z,23.93
2018-08-24T04:27:35.411Z,24.07
2018-08-24T04:28:45.500Z,24.07
2018-08-24T04:29:55.624Z,24.08
2018-08-24T04:31:05.446Z,24.18
2018-08-24T04:32:15.514Z,24.29
2018-08-24T04:33:25.081Z,24.3
2018-08-24T04:34:35.147Z,24.42
2018-08-24T04:35:44.452Z,24.61
2018-08-24T04:36:54.530Z,24.78
2018-08-24T04:38:04.598Z,25.2
2018-08-24T04:39:14.689Z,25.6
2018-08-24T04:40:24.804Z,25.97
2018-08-24T04:41:35.609Z,26.15
2018-08-24T04:42:45.707Z,26.45
2018-08-24T04:43:55.517Z,26.67
2018-08-24T04:45:05.705Z,27
2018-08-24T04:46:15.527Z,27.11
2018-08-24T04:47:25.619Z,27.28
2018-08-24T04:48:35.722Z,27.49
2018-08-24T04:49:45.805Z,27.68
2018-08-24T04:50:55.890Z,28.06
2018-08-24T04:52:05.983Z,28.14
2018-08-24T04:53:16.072Z,28.24
2018-08-24T04:54:26.168Z,28.45
2018-08-24T04:55:35.984Z,28.72
2018-08-24T04:56:46.055Z,28.78
2018-08-24T04:57:56.148Z,28.83
2018-08-24T04:59:06.320Z,28.97
2018-08-24T05:00:16.411Z,29.17
2018-08-24T05:01:26.480Z,29.33
2018-08-24T05:02:36.047Z,29.47
2018-08-24T05:03:46.136Z,29.45
2018-08-24T05:04:56.211Z,29.6
2018-08-24T05:06:06.298Z,29.81
2018-08-24T05:07:16.385Z,29.75
2018-08-24T05:08:26.464Z,29.98
2018-08-24T05:09:36.289Z,30.03
2018-08-24T05:10:46.374Z,30.11
2018-08-24T05:11:56.457Z,30.25
2018-08-24T05:13:06.540Z,30.37
2018-08-24T05:14:16.602Z,30.49
2018-08-24T05:15:26.168Z,30.54
2018-08-24T05:16:36.254Z,30.7
2018-08-24T05:17:46.347Z,30.7
2018-08-24T05:18:56.420Z,30.85
2018-08-24T05:20:06.513Z,30.89
2018-08-24T05:21:16.104Z,30.93
2018-08-24T05:22:26.399Z,30.89
2018-08-24T05:23:36.217Z,30.97
2018-08-24T05:24:46.570Z,31.04
2018-08-24T05:25:57.066Z,30.99
2018-08-24T05:27:07.144Z,31.04
2018-08-24T05:28:17.582Z,31.16
2018-08-24T05:29:27.653Z,31.16
2018-08-24T05:30:37.737Z,31.34
2018-08-24T05:31:47.831Z,31.43
2018-08-24T05:32:57.925Z,31.44
2018-08-24T05:34:08.108Z,31.43
2018-08-24T05:35:18.199Z,31.52
2018-08-24T05:36:28.280Z,31.53
2018-08-24T05:37:38.100Z,31.53
2018-08-24T05:38:48.186Z,31.62
2018-08-24T05:39:58.169Z,31.55
2018-08-24T05:41:07.994Z,31.56
2018-08-24T05:42:18.078Z,31.44
2018-08-24T05:43:28.154Z,31.04
2018-08-24T05:44:38.254Z,30.71
2018-08-24T05:45:48.146Z,30.24
2018-08-24T05:46:58.219Z,30.1
2018-08-24T05:48:08.083Z,30.14
2018-08-24T05:49:18.173Z,30.35
2018-08-24T05:50:28.261Z,30.45
2018-08-24T05:51:38.156Z,30.13
2018-08-24T05:52:48.229Z,30
2018-08-24T05:53:58.314Z,29.79
2018-08-24T05:55:08.397Z,29.63
2018-08-24T05:56:18.469Z,29.57
2018-08-24T05:57:28.559Z,29.39
2018-08-24T05:58:38.649Z,29.52
2018-08-24T05:59:48.778Z,29.39
2018-08-24T06:00:58.596Z,29.6
2018-08-24T06:02:08.674Z,29.84
2018-08-24T06:03:18.755Z,29.88
2018-08-24T06:04:28.842Z,29.81
2018-08-24T06:05:38.992Z,29.66
2018-08-24T06:06:49.419Z,29.57
2018-08-24T06:07:59.492Z,29.48
2018-08-24T06:09:09.314Z,29.43
2018-08-24T06:10:19.131Z,29.66
2018-08-24T06:11:29.210Z,29.77
2018-08-24T06:12:39.291Z,29.75
2018-08-24T06:13:49.379Z,29.69
2018-08-24T06:14:59.495Z,29.55
2018-08-24T06:16:09.315Z,29.51
2018-08-24T06:17:19.464Z,29.42
2018-08-24T06:18:29.311Z,29.51
2018-08-24T06:19:38.874Z,29.4
2018-08-24T06:20:48.717Z,29.42
2018-08-24T06:21:58.811Z,29.48
2018-08-24T06:23:08.642Z,29.42
2018-08-24T06:24:18.777Z,29.45
2018-08-24T06:25:28.706Z,29.47
2018-08-24T06:26:38.782Z,29.55
2018-08-24T06:27:48.850Z,29.61
2018-08-24T06:28:58.664Z,29.66
2018-08-24T06:30:08.766Z,29.65
2018-08-24T06:31:18.575Z,29.63
2018-08-24T06:32:28.654Z,29.61
2018-08-24T06:33:38.724Z,29.65
2018-08-24T06:34:48.542Z,29.65
2018-08-24T06:35:58.608Z,29.77
2018-08-24T06:37:08.586Z,29.85
2018-08-24T06:38:18.482Z,29.85
2018-08-24T06:39:28.368Z,29.94
2018-08-24T06:40:38.191Z,29.87
2018-08-24T06:41:47.847Z,29.91
2018-08-24T06:42:58.131Z,29.95
2018-08-24T06:44:08.271Z,30.02
2018-08-24T06:45:18.346Z,30.06
2018-08-24T06:46:28.163Z,30.11
2018-08-24T06:47:38.407Z,30.04
2018-08-24T06:48:48.313Z,30.16
2018-08-24T06:49:58.118Z,30.25
2018-08-24T06:51:07.923Z,30.34
2018-08-24T06:52:17.766Z,30.39
2018-08-24T06:53:27.991Z,30.37
2018-08-24T06:54:38.459Z,30.34
2018-08-24T06:55:48.022Z,30.4
2018-08-24T06:56:58.094Z,30.34
2018-08-24T06:58:08.167Z,30.32
2018-08-24T06:59:18.121Z,30.48
2018-08-24T07:00:28.225Z,30.42
2018-08-24T07:01:38.037Z,30.47
2018-08-24T07:02:47.871Z,30.54
2018-08-24T07:03:57.950Z,30.54
2018-08-24T07:05:08.039Z,30.57
2018-08-24T07:06:18.133Z,30.64
2018-08-24T07:07:28.228Z,30.63
2018-08-24T07:08:38.042Z,30.63
2018-08-24T07:09:48.142Z,30.71
2018-08-24T07:10:58.286Z,30.69
2018-08-24T07:12:08.106Z,30.71
2018-08-24T07:13:18.190Z,30.79
2018-08-24T07:14:28.289Z,30.82
2018-08-24T07:15:38.397Z,30.89
2018-08-24T07:16:48.487Z,30.96
2018-08-24T07:17:58.566Z,30.97
2018-08-24T07:19:08.680Z,31.07
2018-08-24T07:20:18.749Z,31.12
2018-08-24T07:21:28.818Z,31.21
2018-08-24T07:22:38.891Z,31.28
2018-08-24T07:23:48.713Z,31.34
2018-08-24T07:24:58.533Z,31.31
2018-08-24T07:26:08.742Z,31.45
2018-08-24T07:27:18.820Z,31.44
2018-08-24T07:28:28.651Z,31.5
2018-08-24T07:29:38.493Z,31.56
2018-08-24T07:30:48.314Z,31.6
2018-08-24T07:31:58.420Z,31.7
2018-08-24T07:33:08.510Z,31.74
2018-08-24T07:34:18.599Z,31.77
2018-08-24T07:35:28.685Z,31.72
2018-08-24T07:36:38.848Z,31.88
2018-08-24T07:37:48.934Z,31.87
2018-08-24T07:38:59.012Z,31.9
2018-08-24T07:40:08.827Z,31.95
2018-08-24T07:41:19.006Z,32.06
2018-08-24T07:42:28.903Z,32.03
2018-08-24T07:43:39.014Z,32.06
2018-08-24T07:44:49.082Z,32.08
2018-08-24T07:45:58.898Z,32.08
2018-08-24T07:47:08.983Z,32.09
2018-08-24T07:48:19.120Z,32.08
2018-08-24T07:49:29.208Z,32.17
2018-08-24T07:50:39.312Z,32.12
2018-08-24T07:51:49.290Z,32.19
2018-08-24T07:52:59.374Z,32.17
2018-08-24T07:54:09.519Z,32.15
2018-08-24T07:55:19.600Z,32.15
2018-08-24T07:56:29.457Z,32.23
2018-08-24T07:57:39.280Z,32.24
2018-08-24T07:58:49.358Z,32.2
2018-08-24T07:59:59.201Z,32.25
2018-08-24T08:01:09.290Z,32.27
2018-08-24T08:02:19.132Z,32.1
2018-08-24T08:03:28.941Z,32.13
2018-08-24T08:04:39.025Z,32.09
2018-08-24T08:05:49.116Z,32.01
2018-08-24T08:06:58.943Z,32.08
2018-08-24T08:08:09.035Z,32.06
2018-08-24T08:09:19.141Z,32.12
2018-08-24T08:10:28.970Z,32.15
2018-08-24T08:11:39.056Z,32.2
2018-08-24T08:12:49.287Z,32.35
2018-08-24T08:13:59.571Z,32.34
2018-08-24T08:15:09.482Z,32.47
2018-08-24T08:16:19.587Z,32.56
2018-08-24T08:17:29.445Z,32.65
2018-08-24T08:18:39.837Z,32.74
2018-08-24T08:19:50.164Z,32.79
2018-08-24T08:20:59.999Z,32.94
2018-08-24T08:22:10.118Z,32.87
2018-08-24T08:23:20.252Z,32.93
2018-08-24T08:24:30.376Z,33.05
2018-08-24T08:25:40.545Z,33.21
2018-08-24T08:26:50.683Z,33.28
2018-08-24T08:28:00.796Z,33.39
2018-08-24T08:29:11.045Z,33.5
2018-08-24T08:30:22.103Z,33.75
2018-08-24T08:31:32.963Z,34.02
2018-08-24T08:32:42.546Z,34.24
2018-08-24T08:33:52.641Z,34.52
2018-08-24T08:35:03.070Z,34.84
2018-08-24T08:36:13.156Z,35.21
2018-08-24T08:37:22.979Z,35.38
2018-08-24T08:38:33.091Z,35.62
2018-08-24T08:39:43.193Z,35.83
2018-08-24T08:40:52.815Z,35.95
2018-08-24T08:42:02.905Z,35.98
2018-08-24T08:43:13.013Z,36.09
2018-08-24T08:44:23.114Z,36.22
2018-08-24T08:45:33.540Z,36.28
2018-08-24T08:46:43.148Z,36.19
2018-08-24T08:47:52.985Z,36.08
2018-08-24T08:49:03.316Z,35.9
2018-08-24T08:50:13.418Z,35.77
2018-08-24T08:51:23.512Z,35.67
2018-08-24T08:52:33.669Z,35.57
2018-08-24T08:53:43.774Z,35.34
2018-08-24T08:54:53.865Z,35.2
2018-08-24T08:56:03.708Z,35.21
2018-08-24T08:57:13.810Z,35.34
2018-08-24T08:58:23.960Z,35.34
2018-08-24T08:59:34.059Z,35.38
2018-08-24T09:00:44.176Z,35.3
2018-08-24T09:01:54.290Z,35.4
2018-08-24T09:03:04.451Z,35.38
2018-08-24T09:04:14.563Z,35.38
2018-08-24T09:05:24.130Z,35.45
2018-08-24T09:06:34.657Z,35.64
2018-08-24T09:07:44.839Z,35.84
2018-08-24T09:08:54.934Z,35.76
2018-08-24T09:10:05.570Z,35.94
2018-08-24T09:11:15.704Z,35.84
2018-08-24T09:12:25.811Z,35.76
2018-08-24T09:13:35.665Z,35.72
2018-08-24T09:14:45.756Z,35.82
2018-08-24T09:15:55.917Z,36.12
2018-08-24T09:17:06.020Z,36.32
2018-08-24T09:18:16.111Z,36.56
2018-08-24T09:19:26.276Z,36.67
2018-08-24T09:20:36.419Z,36.74
2018-08-24T09:21:46.296Z,36.8
2018-08-24T09:22:56.422Z,36.83
2018-08-24T09:24:06.552Z,36.73
2018-08-24T09:25:16.743Z,36.67
2018-08-24T09:26:26.728Z,36.75
2018-08-24T09:27:36.865Z,36.77
2018-08-24T09:28:46.974Z,36.73
2018-08-24T09:29:57.068Z,36.77
2018-08-24T09:31:06.902Z,36.83
2018-08-24T09:32:17.061Z,36.84
2018-08-24T09:33:26.996Z,36.74
2018-08-24T09:34:37.269Z,36.53
2018-08-24T09:35:47.487Z,36.47
2018-08-24T09:36:57.596Z,36.37
2018-08-24T09:38:07.613Z,36.3
2018-08-24T09:39:17.451Z,36.3
2018-08-24T09:40:27.549Z,36.33
2018-08-24T09:41:37.439Z,36.36
2018-08-24T09:42:47.551Z,36.32
2018-08-24T09:43:57.385Z,36.3
2018-08-24T09:45:07.290Z,36.33
2018-08-24T09:46:17.379Z,36.19
2018-08-24T09:47:27.463Z,36.32
2018-08-24T09:48:37.293Z,36.33
2018-08-24T09:49:47.372Z,36.46
2018-08-24T09:50:57.201Z,36.73
2018-08-24T09:52:07.318Z,36.88
2018-08-24T09:53:17.415Z,37.27
2018-08-24T09:54:27.539Z,37.42
2018-08-24T09:55:37.651Z,37.53
2018-08-24T09:56:47.847Z,37.56
2018-08-24T09:57:58.123Z,37.76
2018-08-24T09:59:08.466Z,37.86
2018-08-24T10:00:18.097Z,37.8
2018-08-24T10:01:28.201Z,37.65
2018-08-24T10:02:38.055Z,37.53
2018-08-24T10:03:48.346Z,37.3
2018-08-24T10:04:58.486Z,37.15
2018-08-24T10:06:08.622Z,37.02
2018-08-24T10:07:18.787Z,37.02
2018-08-24T10:08:29.380Z,36.86
2018-08-24T10:09:39.226Z,36.74
2018-08-24T10:10:49.068Z,36.59
2018-08-24T10:11:58.986Z,36.56
2018-08-24T10:13:09.207Z,36.47
2018-08-24T10:14:19.151Z,36.39
2018-08-24T10:15:29.239Z,36.56
2018-08-24T10:16:38.866Z,36.46
2018-08-24T10:17:48.987Z,36.53
2018-08-24T10:18:59.309Z,36.47
2018-08-24T10:20:09.158Z,36.53
2018-08-24T10:21:19.265Z,36.56
2018-08-24T10:22:29.368Z,36.3
2018-08-24T10:23:39.679Z,36.18
2018-08-24T10:24:49.789Z,35.94
2018-08-24T10:25:59.898Z,35.83
2018-08-24T10:27:10.002Z,35.72
2018-08-24T10:28:20.077Z,35.67
2018-08-24T10:29:30.517Z,35.58
2018-08-24T10:30:40.850Z,35.6
2018-08-24T10:31:50.710Z,35.82
2018-08-24T10:33:00.855Z,35.87
2018-08-24T10:34:11.038Z,35.94
2018-08-24T10:35:21.144Z,35.98
2018-08-24T10:36:31.298Z,35.82
2018-08-24T10:37:41.414Z,35.68
2018-08-24T10:38:51.574Z,35.55
2018-08-24T10:40:01.187Z,35.3
2018-08-24T10:41:11.316Z,35.18
2018-08-24T10:42:21.567Z,34.9
2018-08-24T10:43:31.693Z,34.61
2018-08-24T10:44:41.804Z,34.34
2018-08-24T10:45:51.948Z,34.14
2018-08-24T10:47:02.040Z,33.99
2018-08-24T10:48:12.201Z,33.75
2018-08-24T10:49:22.160Z,33.63
2018-08-24T10:50:32.551Z,33.47
2018-08-24T10:51:42.598Z,33.48
2018-08-24T10:52:52.694Z,33.37
2018-08-24T10:54:02.827Z,33.31
2018-08-24T10:55:12.985Z,33.34
2018-08-24T10:56:23.185Z,33.28
2018-08-24T10:57:33.566Z,33.37
2018-08-24T10:58:43.657Z,33.4
2018-08-24T10:59:53.763Z,33.53
2018-08-24T11:01:03.870Z,33.58
2018-08-24T11:02:13.525Z,33.74
2018-08-24T11:03:23.766Z,33.93
2018-08-24T11:04:33.890Z,33.99
2018-08-24T11:05:43.867Z,34.08
2018-08-24T11:06:54.011Z,34.29
2018-08-24T11:08:04.138Z,34.43
2018-08-24T11:09:14.228Z,34.66
2018-08-24T11:10:24.335Z,34.87
2018-08-24T11:11:34.492Z,34.94
2018-08-24T11:12:44.603Z,35.2
2018-08-24T11:13:54.522Z,35.35
2018-08-24T11:15:04.377Z,35.39
2018-08-24T11:16:14.474Z,35.35
2018-08-24T11:17:24.573Z,35.31
2018-08-24T11:18:34.414Z,35.33
2018-08-24T11:19:44.511Z,35.3
2018-08-24T11:20:54.419Z,35.21
2018-08-24T11:22:04.594Z,35.09
2018-08-24T11:23:14.719Z,34.99
2018-08-24T11:24:24.840Z,34.74
2018-08-24T11:25:34.951Z,34.59
2018-08-24T11:26:44.843Z,34.45
2018-08-24T11:27:55.182Z,34.32
2018-08-24T11:29:05.424Z,34.14
2018-08-24T11:30:15.597Z,33.87
2018-08-24T11:31:25.707Z,33.73
2018-08-24T11:32:35.816Z,33.44
2018-08-24T11:33:45.652Z,33.31
2018-08-24T11:34:55.834Z,33.2
2018-08-24T11:36:06.505Z,33.09
2018-08-24T11:37:17.213Z,33.08
2018-08-24T11:38:27.335Z,33.03
2018-08-24T11:39:37.441Z,33.16
2018-08-24T11:40:47.562Z,33.21
2018-08-24T11:41:57.786Z,33.17
2018-08-24T11:43:08.110Z,33.28
2018-08-24T11:44:18.310Z,33.24
2018-08-24T11:45:28.411Z,33.36
2018-08-24T11:46:38.236Z,33.36
2018-08-24T11:47:48.471Z,33.36
2018-08-24T11:48:58.421Z,33.4
2018-08-24T11:50:08.200Z,33.47
2018-08-24T11:51:18.534Z,33.53
2018-08-24T11:52:28.371Z,33.73
2018-08-24T11:53:38.525Z,33.73
2018-08-24T11:54:48.623Z,33.81
2018-08-24T11:55:58.725Z,33.78
2018-08-24T11:57:08.599Z,33.83
2018-08-24T11:58:18.717Z,33.78
2018-08-24T11:59:28.800Z,33.73
2018-08-24T12:00:39.175Z,33.75
2018-08-24T12:01:49.278Z,33.93
2018-08-24T12:02:59.458Z,34.05
2018-08-24T12:04:09.274Z,34.05
2018-08-24T12:05:19.472Z,34.08
2018-08-24T12:06:29.582Z,34.06
2018-08-24T12:07:39.686Z,33.85
2018-08-24T12:08:49.563Z,33.92
2018-08-24T12:09:59.404Z,33.89
2018-08-24T12:11:09.580Z,33.71
2018-08-24T12:12:20.221Z,33.69
2018-08-24T12:13:30.439Z,33.59
2018-08-24T12:14:40.538Z,33.52
2018-08-24T12:15:50.668Z,33.5
2018-08-24T12:17:00.813Z,33.4
2018-08-24T12:18:10.850Z,33.31
2018-08-24T12:19:20.728Z,33.18
2018-08-24T12:20:30.854Z,32.98
2018-08-24T12:21:41.183Z,32.83
2018-08-24T12:22:51.398Z,32.75
2018-08-24T12:24:01.535Z,32.61
2018-08-24T12:25:11.627Z,32.46
2018-08-24T12:26:21.711Z,32.5
2018-08-24T12:27:31.566Z,32.49
2018-08-24T12:28:41.683Z,32.61
2018-08-24T12:29:51.515Z,32.57
2018-08-24T12:31:01.765Z,32.65
2018-08-24T12:32:12.310Z,32.79
2018-08-24T12:33:22.445Z,32.75
2018-08-24T12:34:32.574Z,32.75
2018-08-24T12:35:42.981Z,32.71
2018-08-24T12:36:53.134Z,32.71
2018-08-24T12:38:03.397Z,32.68
2018-08-24T12:39:13.838Z,32.68
2018-08-24T12:40:23.436Z,32.47
2018-08-24T12:41:33.599Z,32.35
2018-08-24T12:42:43.760Z,32.12
2018-08-24T12:43:53.881Z,31.95
2018-08-24T12:45:03.762Z,31.81
2018-08-24T12:46:13.643Z,31.68
2018-08-24T12:47:23.751Z,31.58
2018-08-24T12:48:33.872Z,31.49
2018-08-24T12:49:44.098Z,31.44
2018-08-24T12:50:53.670Z,31.38
2018-08-24T12:52:03.925Z,31.26
2018-08-24T12:53:14.812Z,31.25
2018-08-24T12:54:24.638Z,31.18
2018-08-24T12:55:34.739Z,31.08
2018-08-24T12:56:44.660Z,30.99
2018-08-24T12:57:54.555Z,31.07
2018-08-24T12:59:04.397Z,31.03
2018-08-24T13:00:14.518Z,30.99
2018-08-24T13:01:24.632Z,31.06
2018-08-24T13:02:34.485Z,31.04
2018-08-24T13:03:44.652Z,31.22
2018-08-24T13:04:54.772Z,31.23
2018-08-24T13:06:04.345Z,31.34
2018-08-24T13:07:14.432Z,31.31
2018-08-24T13:08:24.560Z,31.4
2018-08-24T13:09:34.740Z,31.49
2018-08-24T13:10:45.538Z,31.52
2018-08-24T13:11:55.635Z,31.55
2018-08-24T13:13:05.460Z,31.65
2018-08-24T13:14:15.569Z,31.7
2018-08-24T13:15:26.224Z,31.77
2018-08-24T13:16:36.334Z,31.77
2018-08-24T13:17:46.567Z,31.77
2018-08-24T13:18:56.411Z,31.81
2018-08-24T13:20:06.582Z,31.88
2018-08-24T13:21:16.727Z,31.86
2018-08-24T13:22:26.634Z,31.88
2018-08-24T13:23:36.238Z,31.97
2018-08-24T13:24:46.372Z,31.95
2018-08-24T13:25:56.472Z,32.06
2018-08-24T13:27:06.613Z,32.05
2018-08-24T13:28:16.893Z,32.05
2018-08-24T13:29:26.988Z,32.06
2018-08-24T13:30:37.099Z,32.08
2018-08-24T13:31:46.950Z,32.06
2018-08-24T13:32:57.086Z,32.03
2018-08-24T13:34:06.926Z,32.12
2018-08-24T13:35:17.082Z,32.19
2018-08-24T13:36:26.913Z,32.25
2018-08-24T13:37:36.995Z,32.45
2018-08-24T13:38:47.140Z,32.5
2018-08-24T13:39:57.403Z,32.69
2018-08-24T13:41:07.506Z,32.76
2018-08-24T13:42:17.075Z,32.94
2018-08-24T13:43:26.927Z,33.06
2018-08-24T13:44:37.021Z,33.09
2018-08-24T13:45:47.169Z,33.17
2018-08-24T13:46:57.264Z,33.36
2018-08-24T13:48:07.386Z,33.39
2018-08-24T13:49:17.498Z,33.43
2018-08-24T13:50:27.681Z,33.5
2018-08-24T13:51:38.046Z,33.53
2018-08-24T13:52:47.894Z,33.62
2018-08-24T13:53:58.005Z,33.68
2018-08-24T13:55:08.672Z,33.8
2018-08-24T13:56:18.805Z,33.89
2018-08-24T13:57:28.936Z,34.02
2018-08-24T13:58:39.027Z,34.14
2018-08-24T13:59:49.450Z,34.24
2018-08-24T14:00:59.683Z,34.45
2018-08-24T14:02:09.838Z,34.49
2018-08-24T14:03:19.945Z,34.63
2018-08-24T14:04:29.798Z,34.67
2018-08-24T14:05:39.887Z,34.97
2018-08-24T14:06:49.737Z,35.12
2018-08-24T14:07:59.832Z,35.24
2018-08-24T14:09:09.933Z,35.31
2018-08-24T14:10:20.034Z,35.38
2018-08-24T14:11:30.146Z,35.45
2018-08-24T14:12:40.222Z,35.55
2018-08-24T14:13:50.108Z,35.53
2018-08-24T14:14:59.958Z,35.57
2018-08-24T14:16:10.072Z,35.64
2018-08-24T14:17:20.220Z,35.68
2018-08-24T14:18:30.340Z,35.64
2018-08-24T14:19:40.452Z,35.72
2018-08-24T14:20:50.189Z,35.82
2018-08-24T14:21:59.779Z,35.82
2018-08-24T14:23:09.963Z,35.76
2018-08-24T14:24:19.801Z,35.79
2018-08-24T14:25:29.754Z,35.79
2018-08-24T14:26:40.425Z,35.79
2018-08-24T14:27:50.958Z,36.01
2018-08-24T14:29:00.510Z,36.02
2018-08-24T14:30:10.356Z,35.94
2018-08-24T14:31:20.509Z,36.02
2018-08-24T14:32:30.619Z,35.98
2018-08-24T14:33:40.835Z,35.96
2018-08-24T14:34:50.934Z,36.02
2018-08-24T14:36:01.028Z,36.22
2018-08-24T14:37:11.030Z,36.26
2018-08-24T14:38:21.385Z,36.34
2018-08-24T14:39:31.808Z,36.36
2018-08-24T14:40:41.953Z,36.3
2018-08-24T14:41:52.063Z,36.22
2018-08-24T14:43:02.493Z,36.21
2018-08-24T14:44:12.596Z,36.08
2018-08-24T14:45:22.708Z,35.95
2018-08-24T14:46:32.803Z,35.76
2018-08-24T14:47:42.892Z,35.58
2018-08-24T14:48:52.980Z,35.4
2018-08-24T14:50:03.062Z,35.3
2018-08-24T14:51:13.179Z,35.27
2018-08-24T14:52:23.286Z,35.24
2018-08-24T14:53:33.117Z,35.08
2018-08-24T14:54:43.280Z,34.96
2018-08-24T14:55:53.381Z,34.77
2018-08-24T14:57:03.476Z,34.52
2018-08-24T14:58:13.074Z,34.39
2018-08-24T14:59:22.923Z,34.12
2018-08-24T15:00:33.031Z,34.03
2018-08-24T15:01:42.890Z,34.02
2018-08-24T15:02:52.990Z,33.89
2018-08-24T15:04:03.107Z,33.95
2018-08-24T15:05:13.245Z,33.89
2018-08-24T15:06:23.376Z,33.87
2018-08-24T15:07:33.459Z,33.84
2018-08-24T15:08:43.565Z,33.73
2018-08-24T15:09:53.770Z,33.77
2018-08-24T15:11:04.096Z,33.59
2018-08-24T15:12:14.194Z,33.65
2018-08-24T15:13:24.033Z,33.73
2018-08-24T15:14:34.143Z,33.71
2018-08-24T15:15:44.268Z,33.73
2018-08-24T15:16:54.564Z,33.74
2018-08-24T15:18:04.871Z,33.77
2018-08-24T15:19:14.994Z,33.81
2018-08-24T15:20:25.119Z,33.75
2018-08-24T15:21:35.035Z,33.74
2018-08-24T15:22:45.129Z,33.84
2018-08-24T15:23:55.234Z,33.85
2018-08-24T15:25:05.326Z,33.9
2018-08-24T15:26:15.496Z,33.89
2018-08-24T15:27:25.381Z,33.84
2018-08-24T15:28:35.476Z,33.92
2018-08-24T15:29:45.837Z,33.85
2018-08-24T15:30:56.126Z,33.99
2018-08-24T15:32:06.711Z,33.92
2018-08-24T15:33:16.866Z,33.9
2018-08-24T15:34:26.976Z,33.89
2018-08-24T15:35:37.070Z,33.92